Time;durP1;ratioP1;P1;durP2;ratioP2;P2;SDS_P1;SDS_P2;PMS_P1;PMS_P2;Temp;Humidity;BMP_temperature;BMP_pressure;BME280_temperature;BME280_humidity;BME280_pressure;Samples;Min_cycle;Max_cycle;Signal;HPM_P1;HPM_P2
2022/04/24 00:01:11;;;;;;;22.02;12.00;;;;;;;13.02;91.68;97036.66;4472040;32;20153;-73
2022/04/24 00:03:38;;;;;;;21.98;11.45;;;;;;;12.97;92.65;97036.13;4471637;32;20084;-73
2022/04/24 00:06:05;;;;;;;24.50;12.35;;;;;;;12.52;95.53;97027.13;4471917;32;20081;-73
2022/04/24 00:08:32;;;;;;;24.15;12.48;;;;;;;13.03;92.73;97028.78;4471884;32;20152;-73
2022/04/24 00:10:58;;;;;;;23.35;12.60;;;;;;;12.86;93.43;97028.25;4471677;32;20371;-73
2022/04/24 00:13:25;;;;;;;23.05;11.93;;;;;;;13.42;90.50;97028.75;4471994;32;20123;-73
2022/04/24 00:15:52;;;;;;;24.52;12.25;;;;;;;13.28;90.44;97038.28;4471788;32;20671;-73
2022/04/24 00:18:19;;;;;;;24.77;12.45;;;;;;;13.45;89.75;97044.88;4471140;32;20116;-73
2022/04/24 00:20:46;;;;;;;24.05;11.95;;;;;;;14.13;86.43;97036.53;4471904;32;20137;-73
2022/04/24 00:23:13;;;;;;;23.80;11.98;;;;;;;13.35;89.79;97027.50;4471919;32;20096;-73
2022/04/24 00:25:40;;;;;;;23.58;11.65;;;;;;;14.06;87.11;97029.31;4471438;32;20157;-73
2022/04/24 00:28:07;;;;;;;23.90;11.82;;;;;;;13.79;87.80;97032.97;4540310;26;20116;-73
2022/04/24 00:30:34;;;;;;;21.33;11.35;;;;;;;13.32;89.63;97029.37;4456313;32;20109;-73
2022/04/24 00:33:01;;;;;;;23.02;11.45;;;;;;;13.58;87.90;97017.16;4455825;32;20103;-73
2022/04/24 00:35:30;;;;;;;21.33;11.43;;;;;;;13.64;87.94;97021.09;4455909;32;20168;-73
2022/04/24 00:37:58;;;;;;;23.30;11.85;;;;;;;13.92;86.42;97029.47;4455175;32;20146;-73
2022/04/24 00:40:25;;;;;;;22.52;11.40;;;;;;;13.49;88.64;97017.81;4455946;32;20105;-73
2022/04/24 00:42:52;;;;;;;23.12;10.68;;;;;;;13.45;88.69;97023.34;4456140;32;20093;-73
2022/04/24 00:45:19;;;;;;;19.87;9.95;;;;;;;14.37;83.91;97018.34;4455595;32;20440;-73
2022/04/24 00:47:46;;;;;;;20.12;10.60;;;;;;;14.10;84.85;97020.37;4469198;26;20206;-73
2022/04/24 00:50:13;;;;;;;20.80;10.23;;;;;;;13.30;88.07;97017.47;4456198;32;20109;-73
2022/04/24 00:52:40;;;;;;;21.02;10.10;;;;;;;13.37;87.76;97012.69;4455788;32;20099;-73
2022/04/24 00:55:07;;;;;;;20.00;10.00;;;;;;;13.84;84.53;97012.72;4455814;32;20436;-73
2022/04/24 00:57:34;;;;;;;21.08;10.48;;;;;;;13.17;89.11;97001.91;4477948;26;20101;-73
2022/04/24 01:00:03;;;;;;;20.48;10.30;;;;;;;13.48;87.48;97000.63;4455716;32;20101;-73
2022/04/24 01:02:29;;;;;;;20.33;9.77;;;;;;;13.19;87.68;97004.44;4456132;32;20148;-73
2022/04/24 01:04:57;;;;;;;20.35;9.13;;;;;;;13.78;85.97;97004.56;4455866;32;20093;-73
2022/04/24 01:10:00;;;;;;;16.92;8.45;;;;;;;14.22;83.40;96996.13;4190666;30;20093;-73
2022/04/24 01:12:27;;;;;;;18.35;8.90;;;;;;;14.08;83.12;96996.31;4440465;32;20495;-73
2022/04/24 01:14:53;;;;;;;19.35;9.77;;;;;;;14.13;82.58;96999.38;4439848;32;20164;-73
2022/04/24 01:17:20;;;;;;;19.20;9.40;;;;;;;14.53;80.89;96993.84;4444399;32;20148;-73
2022/04/24 01:19:48;;;;;;;19.60;8.93;;;;;;;14.15;83.54;96998.34;4455893;32;20137;-73
2022/04/24 01:22:17;;;;;;;21.27;9.60;;;;;;;13.71;85.27;96992.97;4455477;32;20163;-73
2022/04/24 01:24:44;;;;;;;18.75;8.98;;;;;;;14.05;83.44;96991.34;4455723;32;20101;-73
2022/04/24 01:27:11;;;;;;;18.70;9.13;;;;;;;13.94;84.21;96989.56;4473512;26;20152;-74
2022/04/24 01:29:38;;;;;;;19.60;9.05;;;;;;;13.78;85.04;96983.81;4470450;32;20367;-73
2022/04/24 01:32:06;;;;;;;26.15;10.02;;;;;;;14.59;80.82;96998.59;4471252;32;20340;-73
2022/04/24 01:34:33;;;;;;;17.52;8.98;;;;;;;14.21;82.98;96986.69;4456768;32;20145;-73
2022/04/24 01:37:00;;;;;;;19.27;9.35;;;;;;;14.05;83.45;96999.13;4470559;32;20096;-73
2022/04/24 01:39:27;;;;;;;18.73;9.32;;;;;;;14.13;82.30;96984.66;4471242;32;20104;-73
2022/04/24 01:41:55;;;;;;;19.08;9.32;;;;;;;13.79;84.54;96991.47;4470855;32;20098;-73
2022/04/24 01:44:22;;;;;;;18.87;8.45;;;;;;;14.66;80.75;96987.62;4470939;32;20409;-73
2022/04/24 01:46:49;;;;;;;18.62;8.65;;;;;;;13.62;84.41;96986.69;4471140;32;20111;-73
2022/04/24 01:49:16;;;;;;;14.98;7.37;;;;;;;13.97;83.32;96991.91;4458288;32;20112;-73
2022/04/24 01:51:44;;;;;;;17.48;8.82;;;;;;;13.83;84.71;96992.09;4459001;32;20155;-73
2022/04/24 01:54:11;;;;;;;17.77;8.52;;;;;;;13.64;85.03;96987.41;4472829;32;20146;-73
2022/04/24 01:56:38;;;;;;;18.00;8.77;;;;;;;14.09;83.14;96998.78;4472528;32;20492;-73
2022/04/24 01:59:05;;;;;;;17.05;7.75;;;;;;;12.77;90.25;96990.06;4494016;26;20105;-73
2022/04/24 02:01:32;;;;;;;16.50;7.50;;;;;;;13.24;87.00;96992.81;4457277;32;20152;-73
2022/04/24 02:03:59;;;;;;;16.70;7.45;;;;;;;13.72;84.65;96994.62;4456791;32;20149;-73
2022/04/24 02:06:26;;;;;;;16.92;7.47;;;;;;;12.91;87.85;96988.19;4457400;32;20108;-73
2022/04/24 02:08:53;;;;;;;14.75;7.35;;;;;;;13.46;85.29;96992.13;4456990;32;20097;-73
2022/04/24 02:11:20;;;;;;;19.30;8.15;;;;;;;12.61;88.67;96983.34;4456943;32;20092;-73
2022/04/24 02:13:47;;;;;;;15.50;7.40;;;;;;;13.87;83.20;96978.78;4457215;32;20081;-73
2022/04/24 02:16:14;;;;;;;14.82;6.75;;;;;;;13.90;82.24;96972.53;4443099;32;20139;-73
2022/04/24 02:18:41;;;;;;;15.23;7.32;;;;;;;13.53;83.21;96974.38;4456342;32;20461;-73
2022/04/24 02:21:10;;;;;;;15.75;7.03;;;;;;;13.79;81.57;96980.28;4457159;32;20096;-73
2022/04/24 02:23:37;;;;;;;14.68;7.30;;;;;;;13.37;84.51;96963.44;4430119;32;20093;-73
2022/04/24 02:26:04;;;;;;;15.52;7.28;;;;;;;13.12;84.39;96959.97;4442928;32;20113;-73
2022/04/24 02:28:31;;;;;;;15.15;6.87;;;;;;;13.53;83.13;96964.03;4457084;32;20140;-73
2022/04/24 02:30:58;;;;;;;18.00;7.85;;;;;;;12.49;88.57;96947.94;4456737;32;20128;-73
2022/04/24 02:33:25;;;;;;;15.73;7.00;;;;;;;12.35;89.62;96948.88;4457048;32;20159;-72
2022/04/24 02:35:52;;;;;;;17.23;6.95;;;;;;;13.08;86.25;96955.97;4456802;32;20111;-73
2022/04/24 02:38:19;;;;;;;16.08;7.18;;;;;;;12.66;88.25;96949.41;4456654;32;20145;-73
2022/04/24 02:40:46;;;;;;;14.93;6.93;;;;;;;12.39;90.82;96949.50;4457080;32;20159;-73
2022/04/24 02:43:13;;;;;;;17.17;7.75;;;;;;;12.89;87.23;96943.47;4457015;32;20111;-73
2022/04/24 02:45:43;;;;;;;18.15;7.75;;;;;;;12.68;88.88;96939.78;4456533;32;20165;-73
2022/04/24 02:48:10;;;;;;;19.40;8.30;;;;;;;13.92;83.74;96960.28;4456794;32;20149;-73
2022/04/24 02:50:39;;;;;;;19.25;8.50;;;;;;;13.76;84.32;96955.41;4456966;32;20080;-73
2022/04/24 02:53:07;;;;;;;16.92;7.55;;;;;;;14.10;82.81;96952.94;4430115;32;20156;-73
2022/04/24 02:55:34;;;;;;;15.18;8.00;;;;;;;14.02;82.36;96958.66;4456705;32;20097;-73
2022/04/24 02:58:01;;;;;;;17.37;7.50;;;;;;;14.43;80.87;96965.97;4442472;32;20128;-73
2022/04/24 03:00:39;;;;;;;19.23;9.10;;;;;;;14.25;80.87;96966.50;4456003;32;20168;-73
2022/04/24 03:03:07;;;;;;;16.58;8.00;;;;;;;13.79;82.84;96967.31;4456994;32;20145;-73
2022/04/24 03:05:35;;;;;;;18.23;9.07;;;;;;;13.67;83.77;96961.25;4456350;32;20119;-73
2022/04/24 03:08:02;;;;;;;16.00;7.50;;;;;;;13.16;86.54;96965.75;4533775;26;20162;-73
2022/04/24 03:10:29;;;;;;;13.95;6.55;;;;;;;12.94;87.46;96956.91;4456897;32;20099;-73
2022/04/24 03:12:56;;;;;;;14.77;6.47;;;;;;;14.29;80.11;96960.19;4456490;32;20161;-73
2022/04/24 03:15:23;;;;;;;15.20;6.40;;;;;;;14.18;80.21;96955.78;4456539;32;20089;-73
2022/04/24 03:17:54;;;;;;;16.77;7.80;;;;;;;13.10;84.63;96958.44;4456633;32;20148;-73
2022/04/24 03:20:22;;;;;;;15.85;7.62;;;;;;;13.26;84.86;96964.22;4456466;32;20494;-73
2022/04/24 03:22:50;;;;;;;15.27;7.70;;;;;;;13.30;84.66;96965.66;4442667;32;20086;-73
2022/04/24 03:25:17;;;;;;;16.75;7.05;;;;;;;13.34;85.12;96950.72;4456501;32;20109;-73
2022/04/24 03:30:19;;;;;;;13.43;6.00;;;;;;;14.13;79.85;96952.69;4629526;26;20172;-73
2022/04/24 03:32:46;;;;;;;14.63;6.30;;;;;;;13.71;81.08;96960.09;4456632;32;20149;-73
2022/04/24 03:35:13;;;;;;;13.13;6.40;;;;;;;13.94;79.81;96955.84;4456171;32;20177;-73
2022/04/24 03:43:04;;;;;;;17.40;8.27;;;;;;;16.19;70.15;96963.34;4472914;27;20137;-74
2022/04/24 03:45:31;;;;;;;12.18;5.80;;;;;;;16.36;70.24;96963.72;4471772;32;20115;-74
2022/04/24 03:47:58;;;;;;;12.73;5.68;;;;;;;16.74;67.98;96966.59;4471507;32;20117;-74
2022/04/24 03:50:25;;;;;;;10.40;4.87;;;;;;;17.85;64.02;96969.09;4472121;32;20102;-74
2022/04/24 03:52:52;;;;;;;11.60;4.70;;;;;;;17.13;64.48;96965.94;4472073;32;20124;-74
2022/04/24 03:55:19;;;;;;;10.52;4.10;;;;;;;18.09;61.64;96975.69;4471623;32;20097;-74
2022/04/24 04:00:17;;;;;;;9.48;4.03;;;;;;;18.46;58.77;96968.78;4424356;32;20164;-73
2022/04/24 04:02:45;;;;;;;10.55;4.22;;;;;;;17.74;61.62;96974.44;4425256;32;20425;-73
2022/04/24 04:05:12;;;;;;;10.63;3.90;;;;;;;17.54;61.71;96967.50;4425252;32;20098;-74
2022/04/24 04:07:40;;;;;;;9.10;3.58;;;;;;;17.25;62.53;96970.06;4425099;32;20105;-73
2022/04/24 04:10:07;;;;;;;10.57;4.20;;;;;;;17.58;61.52;96964.50;4597235;26;20089;-73
2022/04/24 04:12:35;;;;;;;10.23;4.10;;;;;;;15.85;67.10;96967.91;4470802;32;20103;-73
2022/04/24 04:15:03;;;;;;;13.85;5.43;;;;;;;14.46;74.04;96963.19;4457641;32;20105;-73
2022/04/24 04:17:30;;;;;;;14.50;6.45;;;;;;;14.97;72.70;96964.50;4471609;32;20111;-73
2022/04/24 04:19:57;;;;;;;13.02;6.68;;;;;;;16.26;68.01;96958.44;4515989;26;20097;-73
2022/04/24 04:22:25;;;;;;;16.35;7.97;;;;;;;16.40;67.27;96957.31;4471917;32;20077;-73
2022/04/24 04:24:52;;;;;;;16.05;6.60;;;;;;;15.27;73.01;96964.69;4471536;32;20108;-73
2022/04/24 04:27:19;;;;;;;14.77;7.12;;;;;;;15.37;72.24;96966.59;4471936;32;20161;-73
2022/04/24 04:32:21;;;;;;;16.90;8.07;;;;;;;15.18;74.41;96969.78;4089753;30;20357;-73
2022/04/24 04:34:48;;;;;;;16.35;8.10;;;;;;;16.30;70.30;96972.06;4440603;32;20165;-73
2022/04/24 04:37:15;;;;;;;16.50;8.48;;;;;;;15.56;72.78;96961.56;4440438;32;20108;-73
2022/04/24 04:42:17;;;;;;;18.42;8.57;;;;;;;16.79;68.32;96960.97;4637984;26;20529;-73
2022/04/24 04:44:45;;;;;;;17.73;9.88;;;;;;;16.60;69.00;96953.88;4471334;32;20119;-73
2022/04/24 04:47:11;;;;;;;18.50;9.77;;;;;;;16.55;69.30;96937.81;4471810;32;20084;-73
2022/04/24 04:49:38;;;;;;;17.80;9.48;;;;;;;16.83;67.34;96941.53;4689807;26;20168;-73
2022/04/24 04:52:06;;;;;;;19.75;9.80;;;;;;;16.03;70.78;96944.75;4441832;32;20188;-73
2022/04/24 04:54:34;;;;;;;22.25;11.40;;;;;;;17.35;65.87;96947.47;4455850;32;20444;-73
2022/04/24 04:57:01;;;;;;;27.10;12.27;;;;;;;16.32;70.78;96952.75;4456001;32;20105;-73
2022/04/24 04:59:28;;;;;;;21.77;11.35;;;;;;;16.54;70.72;96941.38;4466033;26;20375;-73
2022/04/24 05:01:55;;;;;;;24.33;11.95;;;;;;;16.81;70.51;96953.88;4456009;32;20427;-73
2022/04/24 05:04:22;;;;;;;23.00;11.90;;;;;;;17.15;69.08;96958.78;4455775;32;20128;-74
2022/04/24 05:06:49;;;;;;;22.13;11.85;;;;;;;17.13;69.40;96950.28;4455587;32;20097;-74
2022/04/24 05:11:53;;;;;;;20.90;10.80;;;;;;;18.78;62.86;96962.41;4704251;26;20149;-74
2022/04/24 05:14:20;;;;;;;20.08;9.95;;;;;;;18.63;62.99;96967.22;4455754;32;20183;-74
2022/04/24 05:16:46;;;;;;;18.83;9.30;;;;;;;19.30;60.74;96976.63;4455790;32;20111;-74
2022/04/24 05:19:13;;;;;;;17.67;8.95;;;;;;;18.85;61.28;96973.09;4591949;26;20168;-74
2022/04/24 05:21:40;;;;;;;17.67;8.90;;;;;;;18.50;62.27;96956.25;4442000;32;20136;-74
2022/04/24 05:24:07;;;;;;;16.92;8.77;;;;;;;19.97;57.02;96971.94;4455267;32;20111;-74
2022/04/24 05:26:34;;;;;;;16.48;8.68;;;;;;;19.93;57.25;96971.41;4455593;32;20114;-74
2022/04/24 05:29:02;;;;;;;20.17;9.38;;;;;;;20.49;55.69;96980.72;4562914;26;20410;-74
2022/04/24 05:31:30;;;;;;;17.70;8.73;;;;;;;19.26;59.47;96980.50;4449570;32;195555;-74
2022/04/24 05:33:57;;;;;;;15.30;8.35;;;;;;;18.51;62.41;96965.75;4455060;32;20523;-74
2022/04/24 05:36:24;;;;;;;17.08;7.60;;;;;;;18.65;62.27;96952.25;4441672;32;20105;-74
2022/04/24 05:41:26;;;;;;;14.07;7.25;;;;;;;19.92;58.40;96964.53;4749244;26;20140;-74
2022/04/24 05:43:53;;;;;;;15.95;7.30;;;;;;;20.35;56.64;96970.78;4441540;32;20109;-74
2022/04/24 05:46:20;;;;;;;14.05;7.20;;;;;;;21.40;53.22;96976.81;4455488;32;20468;-74
2022/04/24 05:48:48;;;;;;;14.65;7.62;;;;;;;21.00;54.29;96984.31;4455100;32;20136;-74
2022/04/24 05:51:14;;;;;;;12.55;5.97;;;;;;;22.56;49.41;96975.00;4455419;32;20090;-74
2022/04/24 05:53:41;;;;;;;13.05;5.35;;;;;;;22.46;49.71;96975.19;4455506;32;20142;-74
2022/04/24 05:56:08;;;;;;;13.88;6.53;;;;;;;20.94;52.11;96977.06;4454686;32;20111;-74
2022/04/24 05:58:35;;;;;;;11.07;5.62;;;;;;;22.43;50.34;96986.00;4455359;32;20108;-74
2022/04/24 06:01:02;;;;;;;11.05;4.62;;;;;;;23.04;47.13;96972.28;4454987;32;20081;-74
2022/04/24 06:03:29;;;;;;;9.90;3.80;;;;;;;23.30;45.69;96976.47;4455201;32;20097;-74
2022/04/24 06:05:56;;;;;;;6.93;2.65;;;;;;;22.95;45.72;96970.66;4454912;32;20097;-74
2022/04/24 06:08:23;;;;;;;5.80;2.10;;;;;;;21.91;47.64;96973.19;4454961;32;20144;-74
2022/04/24 06:10:50;;;;;;;6.05;2.20;;;;;;;20.81;49.82;96963.56;4455091;32;20149;-73
2022/04/24 06:13:17;;;;;;;5.75;2.30;;;;;;;19.00;54.51;96964.66;4455085;32;20470;-73
2022/04/24 06:15:44;;;;;;;5.90;2.53;;;;;;;18.81;55.38;96958.66;4454498;32;20156;-74
2022/04/24 06:18:11;;;;;;;5.32;2.45;;;;;;;18.84;56.47;96966.25;4454984;32;20073;-73
2022/04/24 06:23:12;;;;;;;5.28;2.12;;;;;;;17.52;61.18;96948.56;4422300;32;20124;-73
2022/04/24 06:25:39;;;;;;;5.30;2.22;;;;;;;17.96;59.27;96955.06;4423817;32;20094;-73
2022/04/24 06:28:06;;;;;;;5.25;2.00;;;;;;;18.70;57.65;96952.66;4424149;32;20487;-73
2022/04/24 06:30:35;;;;;;;7.10;2.40;;;;;;;18.74;56.63;96945.37;4491976;27;20160;-73
2022/04/24 06:33:02;;;;;;;5.20;2.20;;;;;;;18.03;59.59;96937.91;4454924;32;20129;-73
2022/04/24 06:35:29;;;;;;;8.23;2.30;;;;;;;18.70;56.66;96941.38;4455957;32;20482;-73
2022/04/24 06:37:56;;;;;;;7.50;2.70;;;;;;;17.97;59.38;96935.88;4456733;32;20428;-73
2022/04/24 06:40:24;;;;;;;6.10;2.17;;;;;;;18.33;59.92;96926.47;4606971;26;20499;-73
2022/04/24 06:42:56;;;;;;;8.95;2.40;;;;;;;18.29;59.10;96929.47;4457066;32;20097;-73
2022/04/24 06:45:25;;;;;;;8.38;2.50;;;;;;;17.98;59.26;96921.03;4456549;32;20089;-73
2022/04/24 06:47:53;;;;;;;6.37;2.22;;;;;;;18.23;57.89;96915.22;4443195;32;20459;-73
2022/04/24 06:50:22;;;;;;;5.57;2.30;;;;;;;18.26;58.46;96909.72;4777789;26;20180;-74
2022/04/24 06:53:00;;;;;;;6.87;2.42;;;;;;;17.71;61.13;96906.06;4457085;32;20451;-74
2022/04/24 06:55:28;;;;;;;5.75;2.40;;;;;;;19.39;55.55;96924.41;4456848;32;20478;-74
2022/04/24 06:57:55;;;;;;;4.93;2.10;;;;;;;18.68;56.47;96918.00;4456648;32;20100;-74
2022/04/24 07:00:23;;;;;;;5.53;1.77;;;;;;;19.42;55.59;96917.06;4596435;26;20101;-73
2022/04/24 07:02:50;;;;;;;6.18;2.28;;;;;;;19.45;53.40;96905.50;4443080;32;20186;-73
2022/04/24 07:05:22;;;;;;;5.68;2.25;;;;;;;18.25;57.42;96912.47;4442402;32;20568;-73
2022/04/24 07:07:49;;;;;;;7.25;2.60;;;;;;;19.48;53.49;96903.41;4456941;32;20095;-73
2022/04/24 07:10:16;;;;;;;6.47;2.62;;;;;;;18.86;56.72;96904.19;4564828;26;20136;-74
2022/04/24 07:12:52;;;;;;;7.75;2.50;;;;;;;19.12;56.09;96896.47;4456446;32;20153;-73
2022/04/24 07:15:21;;;;;;;8.85;2.40;;;;;;;18.09;57.57;96902.62;4456489;32;20161;-73
2022/04/24 07:17:50;;;;;;;5.53;2.30;;;;;;;18.73;57.44;96909.75;4456735;32;20081;-73
2022/04/24 07:20:18;;;;;;;7.10;2.70;;;;;;;19.08;55.07;96911.66;4442148;32;20073;-73
2022/04/24 07:22:46;;;;;;;5.80;2.20;;;;;;;19.08;56.06;96909.03;4456758;32;20101;-73
2022/04/24 07:25:18;;;;;;;6.45;2.20;;;;;;;18.92;54.40;96872.22;4456117;32;20098;-73
2022/04/24 07:27:45;;;;;;;5.30;1.85;;;;;;;18.46;55.01;96894.81;4456647;32;20081;-73
2022/04/24 07:30:13;;;;;;;7.80;2.30;;;;;;;18.13;56.00;96901.38;4456253;32;20152;-73
2022/04/24 07:32:48;;;;;;;4.53;1.92;;;;;;;18.78;55.52;96903.12;4456317;32;20511;-73
2022/04/24 07:35:17;;;;;;;6.55;1.90;;;;;;;18.78;55.96;96910.12;4456480;32;20176;-73
2022/04/24 07:37:44;;;;;;;4.15;1.83;;;;;;;19.06;53.46;96903.94;4456717;32;20085;-73
2022/04/24 07:40:14;;;;;;;3.95;1.55;;;;;;;19.82;51.37;96892.31;4489313;26;20137;-73
2022/04/24 07:42:48;;;;;;;5.28;1.80;;;;;;;20.11;49.52;96895.47;4456538;32;20417;-73
2022/04/24 07:45:19;;;;;;;3.12;1.42;;;;;;;19.47;51.66;96891.31;4456175;32;20434;-73
2022/04/24 07:47:47;;;;;;;4.15;1.40;;;;;;;19.19;52.08;96892.31;4442315;32;20107;-73
2022/04/24 07:50:15;;;;;;;5.05;1.77;;;;;;;18.35;53.20;96889.75;4456172;32;20121;-73
2022/04/24 07:52:43;;;;;;;3.90;1.55;;;;;;;18.24;53.89;96876.87;4456567;32;20437;-74
2022/04/24 07:55:15;;;;;;;2.62;1.55;;;;;;;18.62;53.04;96892.44;4455934;32;20101;-73
2022/04/24 07:57:42;;;;;;;13.73;1.90;;;;;;;18.49;52.62;96878.84;4456440;32;20532;-73
2022/04/24 08:00:10;;;;;;;4.65;1.80;;;;;;;18.31;54.32;96883.19;4456019;32;20152;-73
2022/04/24 08:02:46;;;;;;;5.95;1.77;;;;;;;18.67;53.11;96874.56;4456191;32;20715;-73
2022/04/24 08:05:29;;;;;;;6.03;1.70;;;;;;;18.91;53.19;96884.47;4456371;32;20115;-73
2022/04/24 08:07:58;;;;;;;5.43;1.85;;;;;;;18.87;52.62;96885.75;4456253;32;20160;-73
2022/04/24 08:10:27;;;;;;;5.72;1.70;;;;;;;18.76;52.58;96876.31;4456074;32;20186;-73
2022/04/24 08:12:54;;;;;;;5.07;1.40;;;;;;;18.68;52.24;96873.59;4456523;32;20168;-73
2022/04/24 08:15:22;;;;;;;5.55;1.45;;;;;;;18.05;53.30;96885.56;4441783;32;20152;-73
2022/04/24 08:17:49;;;;;;;5.25;1.70;;;;;;;18.32;54.03;96890.06;4456338;32;20085;-73
2022/04/24 08:20:16;;;;;;;8.60;2.22;;;;;;;19.06;52.42;96893.50;4455636;32;20081;-73
2022/04/24 08:22:44;;;;;;;4.03;1.20;;;;;;;20.21;50.12;96888.34;4456005;32;20107;-73
2022/04/24 08:25:12;;;;;;;4.70;1.60;;;;;;;20.40;48.84;96881.25;4456081;32;20089;-73
2022/04/24 08:27:39;;;;;;;5.07;1.83;;;;;;;20.14;50.06;96896.97;4456356;32;20089;-73
2022/04/24 08:30:11;;;;;;;3.00;1.12;;;;;;;19.80;49.29;96887.22;4518530;26;20439;-74
2022/04/24 08:32:39;;;;;;;3.75;1.00;;;;;;;19.43;51.39;96879.47;4456457;32;20133;-73
2022/04/24 08:35:08;;;;;;;6.00;1.17;;;;;;;19.25;50.30;96876.87;4456165;32;20116;-73
2022/04/24 08:37:34;;;;;;;6.65;1.73;;;;;;;19.01;51.88;96881.81;4455821;32;20503;-73
2022/04/24 08:40:04;;;;;;;6.05;1.40;;;;;;;19.18;50.93;96872.38;4456026;32;20168;-73
2022/04/24 08:42:32;;;;;;;8.20;1.35;;;;;;;19.23;50.94;96884.03;4455931;32;20141;-73
2022/04/24 08:45:00;;;;;;;5.00;1.23;;;;;;;19.51;50.82;96892.66;4456063;32;20144;-73
2022/04/24 08:47:28;;;;;;;3.78;1.15;;;;;;;19.58;50.65;96880.66;4456240;32;20503;-73
2022/04/24 08:49:57;;;;;;;3.12;1.10;;;;;;;19.01;52.47;96900.13;4455539;32;20076;-73
2022/04/24 08:52:25;;;;;;;5.37;1.15;;;;;;;18.88;53.37;96915.31;4456114;32;20105;-73
2022/04/24 08:54:52;;;;;;;5.47;1.40;;;;;;;19.24;51.29;96896.12;4455921;32;20148;-73
2022/04/24 08:57:20;;;;;;;4.95;1.20;;;;;;;19.09;51.55;96887.16;4454808;32;20146;-73
2022/04/24 09:02:22;;;;;;;5.20;1.40;;;;;;;18.29;54.17;96882.47;4880189;26;20161;-73
2022/04/24 09:04:52;;;;;;;5.30;1.15;;;;;;;18.41;54.21;96861.31;4455632;32;20140;-73
2022/04/24 09:07:21;;;;;;;4.43;1.23;;;;;;;18.34;54.21;96873.28;4455930;32;20085;-73
2022/04/24 09:09:50;;;;;;;3.90;1.60;;;;;;;19.11;52.02;96876.53;4455520;32;20140;-74
2022/04/24 09:12:18;;;;;;;4.75;1.02;;;;;;;20.01;50.29;96876.41;4455587;32;20081;-74
2022/04/24 09:14:49;;;;;;;5.03;1.10;;;;;;;20.05;50.09;96871.69;4441776;32;20413;-73
2022/04/24 09:17:21;;;;;;;5.90;1.10;;;;;;;19.32;50.00;96851.75;4455777;32;20431;-73
2022/04/24 09:19:49;;;;;;;4.50;1.05;;;;;;;19.39;51.65;96878.16;4455601;32;20099;-73
2022/04/24 09:22:17;;;;;;;3.87;1.33;;;;;;;18.85;51.92;96847.66;4455760;32;20177;-73
2022/04/24 09:24:49;;;;;;;2.70;0.90;;;;;;;18.76;52.26;96878.09;4441325;32;20472;-73
2022/04/24 09:27:26;;;;;;;9.50;1.10;;;;;;;18.42;52.83;96875.19;4455817;32;20459;-73
2022/04/24 09:29:55;;;;;;;;;;;;;;;18.66;52.03;96877.31;4455636;32;20129;-73
2022/04/24 09:32:24;;;;;;;5.28;1.10;;;;;;;18.41;54.36;96892.66;4441645;32;20034;-73
2022/04/24 09:34:52;;;;;;;4.50;0.85;;;;;;;18.56;52.71;96887.78;4455526;32;20176;-73
2022/04/24 09:37:19;;;;;;;3.17;0.90;;;;;;;18.42;53.38;96878.63;4455583;32;20152;-73
2022/04/24 09:39:47;;;;;;;6.82;1.10;;;;;;;18.54;53.22;96879.25;4455152;32;20153;-73
2022/04/24 09:42:16;;;;;;;3.78;0.82;;;;;;;18.43;52.69;96892.50;4455379;32;20085;-73
2022/04/24 09:44:50;;;;;;;4.70;0.73;;;;;;;18.39;53.40;96878.06;4455512;32;20115;-73
2022/04/24 09:47:37;;;;;;;3.20;0.95;;;;;;;17.99;52.01;96858.25;4455256;32;20537;-73
2022/04/24 09:50:10;;;;;;;6.07;1.12;;;;;;;17.93;54.54;96869.25;4441277;32;20089;-73
2022/04/24 09:52:39;;;;;;;6.78;0.90;;;;;;;18.35;51.66;96855.81;4455229;32;20092;-73
2022/04/24 09:55:06;;;;;;;7.68;1.33;;;;;;;19.58;50.66;96878.03;4441419;32;20119;-73
2022/04/24 09:57:33;;;;;;;4.50;0.88;;;;;;;20.03;48.56;96878.88;4455349;32;20153;-73
2022/04/24 10:00:02;;;;;;;3.30;0.82;;;;;;;19.82;48.59;96872.19;4440505;32;20456;-73
2022/04/24 10:02:30;;;;;;;5.12;0.90;;;;;;;19.88;49.00;96873.34;4454957;32;20772;-73
2022/04/24 10:04:57;;;;;;;6.82;0.93;;;;;;;20.23;46.49;96890.81;4455143;32;20097;-73
2022/04/24 10:07:24;;;;;;;1.17;0.50;;;;;;;19.87;48.33;96876.94;4441119;32;20089;-73
2022/04/24 10:09:51;;;;;;;4.15;0.73;;;;;;;19.32;48.93;96890.97;4456816;32;20090;-73
2022/04/24 10:12:20;;;;;;;4.72;0.93;;;;;;;19.23;49.25;96891.03;4442589;32;20116;-73
2022/04/24 10:14:51;;;;;;;5.00;0.93;;;;;;;19.67;49.63;96888.56;4456778;32;20157;-73
2022/04/24 10:17:37;;;;;;;5.97;1.00;;;;;;;19.51;50.99;96891.81;4457136;32;20085;-74
2022/04/24 10:20:42;;;;;;;2.97;0.50;;;;;;;19.82;49.87;96887.06;4443428;32;20077;-73
2022/04/24 10:23:09;;;;;;;7.03;0.77;;;;;;;18.67;49.91;96871.94;4457203;32;20168;-73
2022/04/24 10:25:40;;;;;;;3.17;0.55;;;;;;;19.01;50.15;96874.78;4443309;32;20487;-73
2022/04/24 10:28:18;;;;;;;5.05;0.73;;;;;;;18.91;51.81;96887.09;4456910;32;20077;-73
2022/04/24 10:31:02;;;;;;;2.08;0.65;;;;;;;19.65;49.18;96870.38;4515398;26;20078;-74
2022/04/24 10:33:32;;;;;;;5.37;1.87;;;;;;;20.12;49.01;96872.72;4457122;32;20148;-74
2022/04/24 10:36:20;;;;;;;5.00;0.70;;;;;;;20.40;48.45;96874.19;4456566;32;20501;-74
2022/04/24 10:38:59;;;;;;;5.40;1.00;;;;;;;20.35;49.85;96873.03;4457046;32;20081;-73
2022/04/24 10:42:09;;;;;;;4.85;1.20;;;;;;;20.38;47.46;96875.34;4551968;26;20077;-74
2022/04/24 10:44:37;;;;;;;5.53;1.00;;;;;;;20.53;48.55;96878.25;4443084;32;20169;-74
2022/04/24 10:47:11;;;;;;;4.90;0.90;;;;;;;20.19;48.89;96876.37;4456994;32;20093;-73
2022/04/24 10:49:38;;;;;;;3.80;1.30;;;;;;;19.83;48.27;96871.22;4456641;32;20104;-73
2022/04/24 10:52:06;;;;;;;10.35;1.08;;;;;;;19.54;50.39;96857.50;4500494;26;20456;-73
2022/04/24 10:54:36;;;;;;;4.05;1.02;;;;;;;19.67;49.67;96878.09;4455661;32;20108;-73
2022/04/24 10:57:23;;;;;;;5.15;1.30;;;;;;;19.75;49.96;96876.37;4455422;32;20105;-73
2022/04/24 10:59:55;;;;;;;3.47;0.95;;;;;;;20.46;49.40;96880.66;4457017;32;20134;-74
2022/04/24 11:02:26;;;;;;;4.40;0.93;;;;;;;20.86;48.08;96887.91;4478402;26;20139;-74
2022/04/24 11:05:02;;;;;;;9.63;1.35;;;;;;;21.03;47.68;96891.41;4457876;32;20112;-74
2022/04/24 11:07:31;;;;;;;3.78;0.95;;;;;;;21.09;48.63;96878.47;4458462;32;20123;-73
2022/04/24 11:10:11;;;;;;;9.60;1.30;;;;;;;21.30;48.65;96872.84;4472105;32;20156;-74
2022/04/24 11:12:39;;;;;;;4.85;0.80;;;;;;;21.30;46.23;96885.13;4472371;32;20146;-74
2022/04/24 11:15:14;;;;;;;4.87;1.15;;;;;;;21.84;45.64;96875.84;4472211;32;20092;-74
2022/04/24 11:17:41;;;;;;;4.95;1.30;;;;;;;21.58;46.26;96870.72;4472017;32;20093;-73
2022/04/24 11:20:16;;;;;;;3.47;0.90;;;;;;;21.14;44.91;96861.44;4457961;32;20103;-74
2022/04/24 11:22:47;;;;;;;5.85;1.20;;;;;;;21.34;45.32;96868.87;4472290;32;20073;-74
2022/04/24 11:25:16;;;;;;;4.05;1.25;;;;;;;21.45;45.40;96877.44;4471998;32;20100;-73
2022/04/24 11:27:44;;;;;;;4.00;0.95;;;;;;;21.08;44.60;96878.66;4472346;32;20156;-73
2022/04/24 11:30:18;;;;;;;7.47;2.87;;;;;;;21.03;46.51;96884.34;4472325;32;20093;-73
2022/04/24 11:32:57;;;;;;;9.02;1.08;;;;;;;21.00;46.22;96879.44;4488074;26;20100;-73
2022/04/24 11:35:27;;;;;;;5.05;1.00;;;;;;;21.07;45.33;96877.81;4471969;32;20108;-73
2022/04/24 11:37:54;;;;;;;4.72;0.95;;;;;;;20.04;46.44;96894.44;4471920;32;20112;-74
2022/04/24 11:40:22;;;;;;;3.83;1.05;;;;;;;20.19;48.86;96892.06;4458128;32;20107;-74
2022/04/24 11:43:18;;;;;;;4.22;0.90;;;;;;;19.94;48.59;96883.22;4504307;27;20093;-74
2022/04/24 11:51:32;;;;;;;2.75;0.90;;;;;;;20.44;47.29;96895.72;4669072;26;20109;-74
2022/04/24 11:54:08;;;;;;;1.80;0.80;;;;;;;20.79;46.31;96911.31;4455783;32;20154;-74
2022/04/24 11:56:37;;;;;;;7.07;1.20;;;;;;;19.89;49.03;96904.66;4456541;32;20141;-74
2022/04/24 11:59:16;;;;;;;3.90;0.90;;;;;;;19.76;50.73;96912.03;4456171;32;20089;-74
2022/04/24 12:01:44;;;;;;;6.70;1.00;;;;;;;19.83;50.05;96920.94;4442464;32;20103;-74
2022/04/24 12:04:19;;;;;;;6.40;1.20;;;;;;;20.17;49.18;96920.22;4442625;32;20483;-74
2022/04/24 12:06:47;;;;;;;4.95;1.00;;;;;;;21.34;47.82;96939.72;4456183;32;20451;-74
2022/04/24 12:09:14;;;;;;;4.72;1.05;;;;;;;20.75;48.47;96930.13;4456512;32;20140;-74
2022/04/24 12:11:45;;;;;;;3.47;0.82;;;;;;;20.64;47.98;96930.41;4456229;32;20371;-74